Time;durP1;ratioP1;P1;durP2;ratioP2;P2;SDS_P1;SDS_P2;PMS_P1;PMS_P2;Temp;Humidity;BMP_temperature;BMP_pressure;BME280_temperature;BME280_humidity;BME280_pressure;Samples;Min_cycle;Max_cycle;Signal;HPM_P1;HPM_P2
2022/01/28 00:00:06;;;;;;;1.30;0.70;;;;;;;4.47;54.24;99631.31;5067132;28;20059;-74
2022/01/28 00:04:57;;;;;;;2.60;0.70;;;;;;;4.44;54.54;99651.03;5066821;28;20025;-75
2022/01/28 00:07:22;;;;;;;2.85;0.80;;;;;;;4.40;54.46;99664.69;5048943;28;20036;-74
2022/01/28 00:09:47;;;;;;;1.33;0.70;;;;;;;4.37;54.52;99660.41;5066748;28;20551;-74
2022/01/28 00:12:16;;;;;;;3.53;0.85;;;;;;;4.32;54.64;99680.09;5066612;28;20088;-73
2022/01/28 00:14:53;;;;;;;1.80;0.77;;;;;;;4.35;54.55;99703.22;5066526;28;20028;-73
2022/01/28 00:38:36;;;;;;;2.55;0.80;;;;;;;4.34;54.40;99743.47;5066584;28;20056;-73
2022/01/28 00:41:01;;;;;;;0.70;0.70;;;;;;;4.35;54.60;99759.75;5066450;28;20017;-73
2022/01/28 00:43:27;;;;;;;0.85;0.60;;;;;;;4.28;54.49;99750.31;5066039;28;20027;-68
2022/01/28 00:45:52;;;;;;;5.00;0.80;;;;;;;4.34;54.21;99769.19;5066190;28;20207;-73
2022/01/28 00:48:18;;;;;;;0.82;0.68;;;;;;;4.33;54.24;99769.16;5065764;28;20032;-73
2022/01/28 00:50:44;;;;;;;1.70;0.63;;;;;;;4.36;54.29;99783.75;5047895;28;20040;-73
2022/01/28 00:53:10;;;;;;;0.50;0.50;;;;;;;4.32;54.48;99793.16;5065619;28;20108;-73
2022/01/28 00:55:35;;;;;;;1.63;0.75;;;;;;;4.35;54.45;99793.19;5065653;28;20108;-73
2022/01/28 00:58:01;;;;;;;1.13;0.90;;;;;;;4.22;54.34;99780.25;5065758;28;20024;-72
2022/01/28 01:00:26;;;;;;;4.30;0.80;;;;;;;4.30;54.64;99807.69;5065876;28;20082;-73
2022/01/28 01:02:52;;;;;;;0.70;0.43;;;;;;;4.19;54.42;99793.06;5047139;28;20033;-73
2022/01/28 01:05:17;;;;;;;1.08;0.65;;;;;;;4.25;54.59;99811.97;5065747;28;20167;-72
2022/01/28 01:07:42;;;;;;;0.80;0.60;;;;;;;4.21;54.58;99817.06;5065710;28;20517;-73
2022/01/28 01:10:09;;;;;;;0.95;0.60;;;;;;;4.18;54.84;99822.19;5065602;28;20079;-72
2022/01/28 01:12:40;;;;;;;1.00;0.52;;;;;;;4.14;54.83;99829.84;5065417;28;20457;-72
2022/01/28 01:15:07;;;;;;;1.08;0.80;;;;;;;4.15;54.90;99844.41;5065439;28;20025;-73
2022/01/28 01:17:41;;;;;;;1.90;0.60;;;;;;;4.14;54.99;99851.25;5065307;28;20646;-73
2022/01/28 01:20:58;;;;;;;1.55;0.50;;;;;;;4.01;54.88;99841.72;5065366;28;20059;-73
2022/01/28 01:23:21;;;;;;;1.00;0.60;;;;;;;4.13;54.89;99875.22;5054513;28;20455;-73
2022/01/28 01:26:29;;;;;;;1.48;0.63;;;;;;;4.14;54.84;99869.22;5064853;28;20035;-73
2022/01/28 01:28:34;;;;;;;0.50;0.50;;;;;;;4.17;54.72;99871.00;5056895;28;20029;-73
2022/01/28 01:31:02;;;;;;;1.58;0.60;;;;;;;4.18;54.86;99881.28;5065216;28;20025;-70
2022/01/28 01:33:31;;;;;;;0.50;0.50;;;;;;;4.05;54.75;99859.75;5065182;28;20025;-70
2022/01/28 01:36:00;;;;;;;1.05;0.70;;;;;;;4.16;54.71;99911.22;5064870;28;20032;-73
2022/01/28 01:38:27;;;;;;;0.60;0.60;;;;;;;4.07;54.77;99904.28;5065766;28;20047;-72
2022/01/28 01:40:58;;;;;;;0.65;0.50;;;;;;;4.19;54.67;99925.81;5047207;28;20060;-72
2022/01/28 01:54:05;;;;;;;2.50;0.68;;;;;;;4.00;55.20;99988.97;5064641;28;20219;-71
2022/01/28 01:56:32;;;;;;;0.68;0.60;;;;;;;4.01;55.13;99990.72;5064618;28;20017;-72
2022/01/28 01:58:58;;;;;;;1.23;0.70;;;;;;;3.92;55.12;99992.31;5046841;28;20025;-71
2022/01/28 02:01:24;;;;;;;0.98;0.50;;;;;;;3.96;55.26;100014.63;5064594;28;20025;-72
2022/01/28 02:03:50;;;;;;;1.23;0.65;;;;;;;3.93;55.30;100017.16;5064341;28;20059;-71
2022/01/28 02:06:19;;;;;;;1.08;0.60;;;;;;;3.83;55.50;100007.63;5064593;28;20024;-71
2022/01/28 02:08:44;;;;;;;0.73;0.55;;;;;;;3.89;55.25;100037.63;5064500;28;20029;-72
2022/01/28 02:11:10;;;;;;;2.97;0.68;;;;;;;3.86;55.21;100038.47;5046504;28;20032;-72
2022/01/28 02:13:37;;;;;;;2.05;0.80;;;;;;;3.94;55.15;100042.00;5064317;28;20653;-73
2022/01/28 02:16:03;;;;;;;1.58;0.90;;;;;;;3.93;55.04;100050.53;5063613;28;20021;-73
2022/01/28 02:18:29;;;;;;;0.95;0.65;;;;;;;3.93;54.94;100047.13;5046048;28;20087;-71
2022/01/28 02:21:01;;;;;;;1.27;0.75;;;;;;;3.97;54.88;100072.88;5046584;28;20025;-73
2022/01/28 02:23:27;;;;;;;1.05;0.60;;;;;;;3.88;54.81;100064.19;5064504;28;20059;-71
2022/01/28 02:25:56;;;;;;;1.77;0.80;;;;;;;4.02;54.71;100079.75;5064121;28;20025;-72
2022/01/28 02:28:22;;;;;;;1.75;0.77;;;;;;;3.96;54.92;100096.81;5064314;28;20028;-72
2022/01/28 02:30:48;;;;;;;0.55;0.55;;;;;;;3.90;55.12;100089.03;5046034;28;20067;-72
2022/01/28 02:33:17;;;;;;;0.70;0.50;;;;;;;3.95;54.83;100096.78;5045836;28;20029;-72
2022/01/28 02:35:44;;;;;;;0.60;0.60;;;;;;;3.95;55.04;100114.78;5064450;28;20013;-71
2022/01/28 02:38:11;;;;;;;0.82;0.82;;;;;;;3.95;54.96;100128.50;5063095;28;20041;-71
2022/01/28 02:40:39;;;;;;;1.25;0.52;;;;;;;3.95;54.69;100114.78;5063254;28;20021;-73
2022/01/28 02:43:32;;;;;;;0.88;0.43;;;;;;;3.91;54.95;100131.00;5062875;28;20017;-72
2022/01/28 02:45:53;;;;;;;0.50;0.50;;;;;;;3.93;55.05;100148.16;5062547;28;20056;-72
2022/01/28 02:48:22;;;;;;;0.60;0.60;;;;;;;3.89;55.18;100130.09;5062734;28;20033;-72
2022/01/28 02:51:01;;;;;;;0.90;0.70;;;;;;;3.93;55.14;100148.16;5062762;28;20028;-73
2022/01/28 02:53:37;;;;;;;0.55;0.50;;;;;;;3.92;55.28;100168.66;5062826;28;20021;-72
2022/01/28 02:56:11;;;;;;;0.60;0.60;;;;;;;3.90;55.24;100165.25;5062877;28;20025;-74
2022/01/28 02:58:37;;;;;;;0.60;0.60;;;;;;;3.90;55.39;100171.22;5062870;28;20025;-71
2022/01/28 03:01:02;;;;;;;0.65;0.60;;;;;;;3.93;55.12;100191.81;5045029;28;20056;-73
2022/01/28 03:03:28;;;;;;;0.95;0.60;;;;;;;3.91;55.20;100205.47;5062682;28;20027;-73
2022/01/28 03:05:54;;;;;;;0.43;0.43;;;;;;;3.86;55.61;100201.97;5062690;28;20028;-72
2022/01/28 03:08:24;;;;;;;0.50;0.50;;;;;;;3.84;55.47;100215.66;5062688;28;20025;-70
2022/01/28 03:16:20;;;;;;;0.60;0.60;;;;;;;3.84;55.51;100240.47;5062631;28;20116;-72
2022/01/28 03:21:53;;;;;;;0.98;0.60;;;;;;;3.82;55.95;100254.97;5048943;28;20120;-72
2022/01/28 03:24:18;;;;;;;0.57;0.57;;;;;;;3.72;55.85;100257.38;5062245;28;20025;-72
2022/01/28 03:26:44;;;;;;;0.50;0.50;;;;;;;3.79;55.94;100278.03;5061258;28;20031;-73
2022/01/28 03:29:09;;;;;;;0.65;0.60;;;;;;;3.82;55.92;100278.09;5062407;28;20053;-73
2022/01/28 03:31:34;;;;;;;0.60;0.50;;;;;;;3.83;55.94;100284.97;5062526;28;20093;-73
2022/01/28 03:34:00;;;;;;;0.57;0.52;;;;;;;3.81;56.08;100282.38;5062137;28;20021;-72
2022/01/28 03:36:25;;;;;;;0.60;0.50;;;;;;;3.72;56.13;100275.38;5021962;28;1152360;-72
2022/01/28 03:38:51;;;;;;;1.45;0.57;;;;;;;3.78;56.21;100292.59;5045469;28;20037;-73
2022/01/28 03:41:19;;;;;;;1.17;0.50;;;;;;;3.75;56.37;100292.53;5063064;28;20033;-71
2022/01/28 03:43:46;;;;;;;0.65;0.60;;;;;;;3.76;56.30;100311.38;5062825;28;20025;-73
2022/01/28 03:46:12;;;;;;;0.57;0.57;;;;;;;3.74;56.23;100310.50;5045284;28;20021;-71
2022/01/28 03:48:37;;;;;;;0.65;0.60;;;;;;;3.68;56.48;100322.38;5062992;28;20025;-72
2022/01/28 03:51:06;;;;;;;1.05;0.60;;;;;;;3.62;56.61;100317.13;5062987;28;20029;-72
2022/01/28 03:53:31;;;;;;;0.68;0.50;;;;;;;3.59;56.80;100335.03;5062874;28;20035;-74
2022/01/28 03:55:57;;;;;;;0.70;0.70;;;;;;;3.57;56.72;100346.97;5062902;28;20017;-73
2022/01/28 03:58:26;;;;;;;0.57;0.50;;;;;;;3.41;56.91;100348.38;5063024;28;20025;-73
2022/01/28 04:00:55;;;;;;;0.77;0.60;;;;;;;3.46;56.89;100369.88;5045210;28;20028;-72
2022/01/28 04:11:38;;;;;;;1.13;0.60;;;;;;;3.34;57.24;100399.56;5062942;28;20114;-73
2022/01/28 04:14:15;;;;;;;0.50;0.50;;;;;;;3.29;57.48;100419.13;5044597;28;20032;-72
2022/01/28 04:19:24;;;;;;;0.70;0.52;;;;;;;3.28;57.43;100444.75;5062579;28;20063;-73
2022/01/28 04:21:50;;;;;;;0.80;0.60;;;;;;;3.22;57.55;100440.38;5062783;28;20025;-73
2022/01/28 04:24:15;;;;;;;0.50;0.50;;;;;;;3.33;57.55;100458.56;5044548;28;20452;-73
2022/01/28 04:26:41;;;;;;;0.45;0.45;;;;;;;3.33;57.64;100473.97;5062702;28;20444;-73
2022/01/28 04:29:07;;;;;;;0.70;0.52;;;;;;;3.32;57.69;100474.81;5062696;28;20021;-74
2022/01/28 04:31:33;;;;;;;1.15;0.55;;;;;;;3.26;57.66;100467.81;5062635;28;20021;-72
2022/01/28 04:34:01;;;;;;;0.57;0.50;;;;;;;3.33;57.58;100489.34;5062621;28;20023;-74
2022/01/28 04:36:31;;;;;;;0.90;0.50;;;;;;;3.35;57.60;100493.69;5062316;28;20065;-72
2022/01/28 04:39:05;;;;;;;0.85;0.60;;;;;;;3.29;57.65;100495.25;5064522;28;20021;-72
2022/01/28 04:41:59;;;;;;;0.60;0.60;;;;;;;3.33;57.72;100520.16;5066334;28;20017;-73
2022/01/28 04:47:25;;;;;;;0.70;0.50;;;;;;;3.25;57.68;100522.53;5042017;28;20101;-71
2022/01/28 04:58:29;;;;;;;1.30;0.50;;;;;;;3.38;57.84;100577.59;4984419;28;20042;-73
2022/01/28 05:09:38;;;;;;;2.38;0.70;;;;;;;3.40;57.24;100604.19;4945407;29;20091;-73
2022/01/28 05:15:18;;;;;;;1.08;0.60;;;;;;;3.40;57.20;100619.59;4945128;29;20225;-73
2022/01/28 05:27:56;;;;;;;1.38;0.60;;;;;;;3.53;53.92;100674.63;4945407;29;20091;-74
2022/01/28 05:30:21;;;;;;;1.40;0.60;;;;;;;3.53;54.04;100682.34;4996136;28;20034;-75
2022/01/28 05:32:46;;;;;;;0.65;0.50;;;;;;;3.55;53.78;100682.38;5002883;28;20034;-75
2022/01/28 05:35:12;;;;;;;0.65;0.60;;;;;;;3.52;53.93;100679.72;5002717;28;20073;-75
2022/01/28 05:37:37;;;;;;;0.75;0.75;;;;;;;3.47;53.82;100677.03;5002750;28;20110;-75
2022/01/28 05:40:03;;;;;;;3.00;0.70;;;;;;;3.57;53.81;100701.25;4986531;28;20030;-75
2022/01/28 05:42:29;;;;;;;0.65;0.60;;;;;;;3.49;53.56;100701.06;5048192;28;20067;-75
2022/01/28 05:44:54;;;;;;;2.90;0.70;;;;;;;3.48;54.09;100707.03;5064757;28;20024;-75
2022/01/28 05:47:21;;;;;;;4.35;0.95;;;;;;;3.53;54.15;100718.28;5064716;28;20028;-76
2022/01/28 05:49:46;;;;;;;3.63;0.98;;;;;;;3.52;54.12;100720.81;5063760;28;20032;-75
2022/01/28 05:52:12;;;;;;;3.53;0.80;;;;;;;3.49;54.28;100731.88;5064888;28;20450;-75
2022/01/28 05:54:37;;;;;;;2.88;0.50;;;;;;;3.30;54.41;100717.69;5064657;28;20108;-75
2022/01/28 05:57:03;;;;;;;3.50;0.88;;;;;;;3.40;54.49;100739.34;5064740;28;20503;-75
2022/01/28 05:59:30;;;;;;;1.42;0.77;;;;;;;3.31;54.29;100734.81;5046949;28;20064;-75
2022/01/28 06:01:55;;;;;;;0.73;0.60;;;;;;;3.26;54.55;100737.25;5064659;28;20044;-76
2022/01/28 06:04:21;;;;;;;1.63;0.63;;;;;;;3.15;54.43;100752.38;5064376;28;20492;-74
2022/01/28 06:06:46;;;;;;;0.50;0.50;;;;;;;3.16;54.27;100749.00;5064635;28;20029;-73
2022/01/28 06:09:12;;;;;;;3.17;0.70;;;;;;;3.13;53.89;100756.56;5064358;28;20036;-71
2022/01/28 06:11:38;;;;;;;0.50;0.50;;;;;;;3.11;52.95;100760.81;5064443;28;20293;-73
2022/01/28 06:14:03;;;;;;;2.20;1.58;;;;;;;3.14;52.49;100754.88;5064327;28;20025;-77
2022/01/28 06:16:29;;;;;;;1.33;0.60;;;;;;;3.18;51.05;100737.06;5064429;28;20051;-71
2022/01/28 06:18:54;;;;;;;2.15;0.77;;;;;;;3.15;50.93;100765.19;5046150;28;20025;-74
2022/01/28 06:21:19;;;;;;;1.42;0.70;;;;;;;3.21;51.08;100792.75;5064169;28;20045;-74
2022/01/28 06:23:45;;;;;;;0.65;0.57;;;;;;;3.13;51.11;100812.16;5064237;28;20025;-74
2022/01/28 06:26:10;;;;;;;3.25;0.70;;;;;;;3.14;50.83;100832.75;5046159;28;20017;-76
2022/01/28 06:28:35;;;;;;;1.85;0.70;;;;;;;3.13;50.47;100838.66;5064280;28;20486;-76
2022/01/28 06:31:01;;;;;;;1.10;0.70;;;;;;;3.12;50.60;100841.19;5064008;28;20024;-72
2022/01/28 06:33:26;;;;;;;1.40;0.60;;;;;;;3.00;50.16;100839.16;5063756;28;20147;-72
2022/01/28 06:35:52;;;;;;;0.65;0.50;;;;;;;3.15;49.61;100857.56;5063897;28;20096;-76
2022/01/28 06:38:18;;;;;;;1.15;0.63;;;;;;;3.07;49.77;100869.28;5045950;28;20025;-72
2022/01/28 06:40:43;;;;;;;0.50;0.50;;;;;;;3.12;49.59;100860.03;5063416;28;20047;-72
2022/01/28 06:43:10;;;;;;;1.70;0.73;;;;;;;3.03;49.52;100870.03;5045382;28;20021;-73
2022/01/28 06:45:36;;;;;;;0.60;0.60;;;;;;;3.01;49.27;100869.09;5063515;28;20017;-74
2022/01/28 06:48:02;;;;;;;0.73;0.60;;;;;;;2.89;49.40;100865.34;5063990;28;20024;-74
2022/01/28 06:50:27;;;;;;;2.90;0.77;;;;;;;2.93;49.62;100885.13;5063627;28;20028;-73
2022/01/28 06:52:52;;;;;;;3.25;1.10;;;;;;;2.90;49.61;100864.53;5045403;28;20024;-73
2022/01/28 06:55:18;;;;;;;3.33;0.50;;;;;;;2.92;49.39;100906.50;5063640;28;20039;-74
2022/01/28 06:57:43;;;;;;;2.47;0.70;;;;;;;2.85;49.33;100910.56;5063698;28;20020;-73
2022/01/28 07:00:11;;;;;;;1.00;0.50;;;;;;;2.85;49.56;100923.38;5063681;28;20036;-74
2022/01/28 07:02:37;;;;;;;1.55;0.70;;;;;;;2.81;49.48;100924.09;5063286;28;20032;-72
2022/01/28 07:05:04;;;;;;;2.17;1.25;;;;;;;2.79;49.42;100937.69;5063062;28;20086;-75
2022/01/28 07:07:30;;;;;;;7.50;0.90;;;;;;;2.74;49.53;100945.22;5063817;28;20029;-74
2022/01/28 07:09:55;;;;;;;2.28;0.60;;;;;;;2.73;49.37;100958.88;5063391;28;20055;-73
2022/01/28 07:12:21;;;;;;;3.88;0.80;;;;;;;2.72;49.39;100972.50;5063339;28;20032;-74
2022/01/28 07:14:47;;;;;;;0.60;0.60;;;;;;;2.64;49.03;100979.94;5063218;28;20029;-75
2022/01/28 07:17:13;;;;;;;1.00;0.60;;;;;;;2.66;49.21;101011.66;5063460;28;20052;-74
2022/01/28 07:19:38;;;;;;;0.80;0.70;;;;;;;2.55;49.12;101007.84;5063109;28;20112;-74
2022/01/28 07:22:04;;;;;;;0.95;0.60;;;;;;;2.57;49.01;101019.88;5063374;28;20029;-73
2022/01/28 07:24:30;;;;;;;1.15;1.00;;;;;;;2.55;49.15;101000.16;5063239;28;20067;-74
2022/01/28 07:26:56;;;;;;;2.97;0.55;;;;;;;2.58;49.05;101028.44;5063292;28;20025;-74
2022/01/28 07:29:22;;;;;;;4.60;0.60;;;;;;;2.52;49.37;101021.44;5063272;28;20033;-74
2022/01/28 07:31:48;;;;;;;2.47;0.65;;;;;;;2.53;49.53;101040.22;5063408;28;20025;-74
2022/01/28 07:34:14;;;;;;;0.52;0.52;;;;;;;2.45;49.15;101040.84;5044855;28;20021;-74
2022/01/28 07:36:40;;;;;;;5.75;1.17;;;;;;;2.43;49.30;101057.00;5062816;28;20319;-73
2022/01/28 07:39:07;;;;;;;0.70;0.55;;;;;;;2.41;49.54;101049.22;5063082;28;20017;-74
2022/01/28 07:41:36;;;;;;;2.55;0.80;;;;;;;2.30;49.82;101035.19;5063127;28;20048;-74
2022/01/28 07:44:02;;;;;;;2.17;0.73;;;;;;;2.28;49.73;101047.94;5062936;28;20032;-73
2022/01/28 07:46:28;;;;;;;0.88;0.60;;;;;;;2.32;49.55;101067.72;5063389;28;20025;-74
2022/01/28 07:48:53;;;;;;;2.53;0.82;;;;;;;2.32;49.46;101074.53;5062777;28;20025;-74
2022/01/28 07:51:19;;;;;;;3.90;0.90;;;;;;;2.33;49.60;101086.53;5063103;28;20489;-74
2022/01/28 07:53:44;;;;;;;10.63;1.77;;;;;;;2.32;49.75;101095.03;5045094;28;20028;-73
2022/01/28 07:56:11;;;;;;;0.65;0.65;;;;;;;2.31;49.33;101096.75;5045165;28;20414;-74
2022/01/28 07:58:37;;;;;;;1.58;0.80;;;;;;;2.32;49.67;101083.09;5063221;28;20381;-75
2022/01/28 08:01:02;;;;;;;2.88;0.63;;;;;;;2.74;49.66;101096.53;5062990;28;20032;-74
2022/01/28 08:03:28;;;;;;;11.30;2.70;;;;;;;3.35;48.71;101094.25;5062548;28;20097;-74
2022/01/28 08:05:53;;;;;;;2.72;0.65;;;;;;;3.99;47.98;101107.34;5063103;28;20021;-74
2022/01/28 08:08:20;;;;;;;1.60;0.95;;;;;;;4.57;47.08;101123.59;5062899;28;20033;-75
2022/01/28 08:10:46;;;;;;;2.10;0.80;;;;;;;5.11;46.65;101119.84;5062889;28;20025;-74
2022/01/28 08:13:12;;;;;;;1.73;0.82;;;;;;;5.65;45.80;101118.59;5063808;28;20370;-74
2022/01/28 08:15:39;;;;;;;3.38;0.63;;;;;;;6.11;44.87;101125.66;5066734;28;20036;-74
2022/01/28 08:18:05;;;;;;;6.80;0.70;;;;;;;6.55;44.16;101124.81;5066747;28;20021;-74
2022/01/28 08:20:31;;;;;;;3.55;0.55;;;;;;;7.00;43.82;101141.97;5066364;28;20029;-74
2022/01/28 08:22:59;;;;;;;3.65;1.00;;;;;;;7.30;43.32;101135.66;5066766;28;20028;-74
2022/01/28 08:25:26;;;;;;;5.63;1.00;;;;;;;7.65;42.78;101147.41;5048494;28;20048;-75
2022/01/28 08:27:52;;;;;;;1.27;0.63;;;;;;;7.93;42.25;101159.03;5066568;28;20025;-74
2022/01/28 08:30:20;;;;;;;4.38;0.90;;;;;;;8.01;42.07;101166.00;5066724;28;20021;-76
2022/01/28 08:32:47;;;;;;;1.88;0.88;;;;;;;8.01;41.60;101166.88;5066104;28;20036;-74
2022/01/28 08:35:13;;;;;;;1.52;0.90;;;;;;;7.85;41.59;101183.88;5047991;28;20094;-74
2022/01/28 08:37:39;;;;;;;3.88;0.88;;;;;;;7.73;41.72;101192.31;5048066;28;20056;-73
2022/01/28 08:40:06;;;;;;;4.82;0.63;;;;;;;7.61;41.77;101200.75;5066336;28;20021;-74
2022/01/28 08:42:32;;;;;;;2.55;1.08;;;;;;;7.40;41.47;101184.03;5066225;28;20021;-74
2022/01/28 08:44:57;;;;;;;5.18;0.80;;;;;;;7.22;41.46;101210.38;5066017;28;20021;-73
2022/01/28 08:47:23;;;;;;;4.43;0.85;;;;;;;7.10;41.27;101218.78;5066317;28;20025;-76
2022/01/28 08:49:48;;;;;;;10.63;0.77;;;;;;;7.08;41.68;101212.72;5047704;28;20025;-76
2022/01/28 08:52:13;;;;;;;3.72;1.17;;;;;;;7.07;41.80;101222.19;5066197;28;20025;-75
2022/01/28 08:54:41;;;;;;;2.33;0.60;;;;;;;7.14;41.73;101211.97;5047859;28;20020;-76
2022/01/28 08:57:07;;;;;;;3.25;1.10;;;;;;;7.71;41.49;101218.97;5065790;28;20465;-76
2022/01/28 08:59:32;;;;;;;3.22;0.70;;;;;;;8.36;40.21;101219.97;5066050;28;20021;-76
2022/01/28 09:01:57;;;;;;;1.05;0.75;;;;;;;9.07;39.81;101223.44;5065850;28;20436;-76
2022/01/28 09:04:23;;;;;;;2.40;0.98;;;;;;;9.71;38.84;101221.47;5065534;28;20029;-78
2022/01/28 09:06:48;;;;;;;5.00;0.80;;;;;;;10.23;37.70;101226.16;5047750;28;20020;-70
2022/01/28 09:09:14;;;;;;;3.33;0.90;;;;;;;10.68;37.43;101235.09;5065530;28;20155;-72
2022/01/28 09:12:04;;;;;;;3.95;0.60;;;;;;;11.29;37.24;101233.56;5047691;28;20039;-72
2022/01/28 09:14:30;;;;;;;1.23;0.70;;;;;;;11.72;35.03;101230.13;5047454;28;20096;-72
2022/01/28 09:16:56;;;;;;;6.53;0.68;;;;;;;12.16;34.31;101244.88;5065493;28;20088;-72
2022/01/28 09:19:21;;;;;;;4.38;0.80;;;;;;;12.59;34.42;101254.31;5065403;28;20024;-73
2022/01/28 09:21:47;;;;;;;4.57;0.70;;;;;;;12.83;29.94;101250.75;5047901;28;20025;-72
2022/01/28 09:24:12;;;;;;;6.93;0.98;;;;;;;12.55;31.98;101257.81;5065353;28;20025;-73
2022/01/28 09:26:38;;;;;;;3.58;1.25;;;;;;;12.60;32.09;101262.09;5065649;28;20033;-72
2022/01/28 09:29:03;;;;;;;3.75;0.70;;;;;;;12.88;30.17;101264.63;5065609;28;20377;-72
2022/01/28 09:31:29;;;;;;;1.52;0.77;;;;;;;13.07;30.20;101269.75;5065567;28;20021;-72
2022/01/28 09:33:54;;;;;;;0.93;0.45;;;;;;;13.32;31.08;101271.38;5065121;28;20021;-73
2022/01/28 09:36:20;;;;;;;4.55;1.15;;;;;;;13.68;30.16;101278.97;5065169;28;20118;-72
2022/01/28 09:38:45;;;;;;;7.55;0.88;;;;;;;14.17;30.53;101277.69;5065301;28;20055;-74
2022/01/28 09:41:11;;;;;;;3.75;1.05;;;;;;;14.52;28.48;101288.66;5065947;28;20027;-72
2022/01/28 09:43:36;;;;;;;7.18;0.80;;;;;;;14.59;28.57;101269.44;5065166;28;20021;-73
2022/01/28 09:46:04;;;;;;;10.60;1.30;;;;;;;14.72;28.51;101287.59;5065565;28;20020;-72
2022/01/28 09:48:30;;;;;;;9.45;1.20;;;;;;;15.09;28.65;101291.53;5065106;28;20025;-73
2022/01/28 09:51:01;;;;;;;5.25;0.50;;;;;;;15.19;27.15;101279.19;5065235;28;20029;-72
2022/01/28 09:53:27;;;;;;;5.75;0.80;;;;;;;15.18;26.80;101288.78;5065023;28;20025;-72
2022/01/28 09:55:53;;;;;;;5.13;0.70;;;;;;;15.22;27.52;101281.78;5047109;28;20047;-72
2022/01/28 09:58:19;;;;;;;4.18;0.90;;;;;;;15.39;26.74;101293.75;5065187;28;20025;-73
2022/01/28 10:00:44;;;;;;;2.70;0.60;;;;;;;15.59;26.53;101303.94;5065108;28;20104;-73
2022/01/28 10:03:12;;;;;;;2.60;0.80;;;;;;;15.57;26.46;101300.47;5065055;28;20108;-73
2022/01/28 10:05:46;;;;;;;3.75;0.90;;;;;;;15.77;26.66;101297.53;5064815;28;20088;-72
2022/01/28 10:08:15;;;;;;;8.50;0.93;;;;;;;15.99;25.99;101305.06;5064855;28;20051;-72
2022/01/28 10:11:00;;;;;;;3.42;0.70;;;;;;;16.13;23.88;101302.22;5046553;28;20120;-71
2022/01/28 10:13:33;;;;;;;5.70;0.80;;;;;;;16.29;24.87;101307.19;5064422;28;20032;-72
2022/01/28 10:16:03;;;;;;;3.30;0.93;;;;;;;16.53;24.53;101310.25;5064548;28;20078;-73
2022/01/28 10:18:41;;;;;;;4.68;0.70;;;;;;;16.47;23.36;101319.06;5064571;28;20021;-72
2022/01/28 10:21:14;;;;;;;3.95;0.60;;;;;;;16.05;22.17;101323.31;5046293;28;20025;-70
2022/01/28 10:23:40;;;;;;;6.30;0.85;;;;;;;15.28;21.81;101312.19;5064246;28;20029;-71
2022/01/28 10:26:05;;;;;;;1.52;0.60;;;;;;;14.80;22.52;101319.78;5046287;28;20044;-72
2022/01/28 10:28:33;;;;;;;3.22;0.75;;;;;;;14.55;23.27;101306.94;5064311;28;20087;-71
2022/01/28 10:31:03;;;;;;;2.00;1.02;;;;;;;14.31;22.40;101321.13;5063950;28;20029;-70
2022/01/28 10:33:28;;;;;;;4.10;0.93;;;;;;;13.84;23.00;101324.97;5064018;28;20029;-70
2022/01/28 10:35:59;;;;;;;2.42;0.88;;;;;;;13.46;22.92;101323.44;5063271;28;20040;-72
2022/01/28 10:38:32;;;;;;;2.93;0.70;;;;;;;13.01;23.14;101314.09;5046128;28;20025;-72
2022/01/28 10:41:11;;;;;;;3.40;0.77;;;;;;;12.10;23.86;101323.81;5064137;28;20029;-72
2022/01/28 10:43:47;;;;;;;2.63;0.80;;;;;;;11.40;24.71;101328.06;5063929;28;20025;-72
2022/01/28 10:46:35;;;;;;;2.47;0.90;;;;;;;10.78;25.51;101322.59;5064196;28;20025;-72
2022/01/28 10:49:08;;;;;;;3.78;1.00;;;;;;;10.49;26.70;101341.44;5063724;28;20029;-72
2022/01/28 10:51:49;;;;;;;1.17;0.63;;;;;;;10.57;26.47;101347.56;5063929;28;20028;-72
2022/01/28 10:54:20;;;;;;;4.93;0.95;;;;;;;10.30;26.91;101341.28;5063557;28;20408;-73
2022/01/28 10:56:54;;;;;;;5.55;1.40;;;;;;;10.28;27.42;101353.38;5063900;28;20044;-74
2022/01/28 10:59:23;;;;;;;3.25;0.90;;;;;;;10.06;26.54;101354.91;5063602;28;20033;-73
2022/01/28 11:01:49;;;;;;;3.78;0.80;;;;;;;9.79;26.93;101357.25;5063508;28;20223;-72
2022/01/28 11:04:17;;;;;;;1.88;0.90;;;;;;;9.64;27.39;101360.56;5063499;28;20389;-73
2022/01/28 11:06:43;;;;;;;4.47;0.82;;;;;;;9.58;27.53;101344.94;5063668;28;20036;-73
2022/01/28 11:09:10;;;;;;;3.95;0.73;;;;;;;9.84;27.13;101363.34;5063320;28;20021;-72
2022/01/28 11:11:37;;;;;;;1.83;0.80;;;;;;;9.72;25.94;101339.88;5063262;28;20032;-72
2022/01/28 11:14:03;;;;;;;0.95;0.60;;;;;;;9.27;25.28;101333.38;5063165;28;20131;-71
2022/01/28 11:16:28;;;;;;;3.40;0.80;;;;;;;9.06;25.77;101326.19;5063441;28;20028;-71
2022/01/28 11:18:55;;;;;;;2.58;0.90;;;;;;;9.30;25.34;101345.47;5063454;28;20033;-70
2022/01/28 11:21:30;;;;;;;2.75;1.13;;;;;;;9.47;25.69;101342.22;5063351;28;20029;-69
2022/01/28 11:24:12;;;;;;;1.17;0.70;;;;;;;10.06;25.48;101337.63;5045303;28;20028;-70
2022/01/28 11:26:50;;;;;;;1.02;0.70;;;;;;;10.58;24.15;101323.31;5063439;28;20115;-69
2022/01/28 11:29:21;;;;;;;2.88;1.70;;;;;;;10.77;23.87;101328.63;5063058;28;20075;-69
2022/01/28 11:31:51;;;;;;;1.95;0.85;;;;;;;10.71;24.08;101328.59;5063260;28;20373;-69
2022/01/28 11:34:23;;;;;;;4.25;1.02;;;;;;;11.00;24.03;101325.28;5044774;28;20044;-72
2022/01/28 11:36:51;;;;;;;1.88;1.00;;;;;;;10.91;23.70;101321.78;5062951;28;20063;-69
2022/01/28 11:39:29;;;;;;;3.90;1.02;;;;;;;10.96;23.36;101332.19;5063296;28;20093;-69
2022/01/28 11:42:11;;;;;;;5.25;1.38;;;;;;;10.90;23.82;101330.44;5063217;28;20040;-69
2022/01/28 11:44:42;;;;;;;3.10;1.05;;;;;;;9.96;25.04;101339.25;5063178;28;20028;-69
2022/01/28 11:47:19;;;;;;;5.10;1.10;;;;;;;9.18;26.28;101341.88;5063313;28;20493;-68
2022/01/28 11:49:51;;;;;;;2.95;1.13;;;;;;;8.41;26.72;101339.94;5066749;28;20362;-68
2022/01/28 11:52:30;;;;;;;2.13;0.70;;;;;;;7.78;27.57;101342.34;5067042;28;20025;-68
2022/01/28 11:55:16;;;;;;;3.53;1.20;;;;;;;7.39;28.49;101334.72;5048938;28;20151;-68
2022/01/28 11:57:57;;;;;;;1.65;1.23;;;;;;;7.06;29.27;101334.06;5066717;28;20016;-68
2022/01/28 12:00:31;;;;;;;5.35;1.17;;;;;;;6.87;29.84;101322.44;5066831;28;20036;-68
2022/01/28 12:02:57;;;;;;;7.75;0.95;;;;;;;6.69;30.20;101334.09;5066764;28;20170;-69
2022/01/28 12:05:45;;;;;;;3.40;0.85;;;;;;;6.55;30.38;101330.38;5066840;28;20025;-68
2022/01/28 12:08:12;;;;;;;2.40;0.80;;;;;;;6.25;31.17;101321.91;5066832;28;20033;-69
2022/01/28 12:10:43;;;;;;;1.58;0.60;;;;;;;6.21;31.44;101335.59;5066737;28;20076;-68
2022/01/28 12:13:13;;;;;;;1.63;0.60;;;;;;;6.07;31.99;101324.94;5066700;28;20032;-68
2022/01/28 12:16:01;;;;;;;2.40;0.60;;;;;;;5.93;32.60;101333.13;5066698;28;20025;-69
2022/01/28 12:18:45;;;;;;;0.50;0.50;;;;;;;5.83;32.96;101331.19;5066753;28;20033;-70
2022/01/28 12:21:16;;;;;;;2.38;0.80;;;;;;;5.79;33.22;101326.75;5066713;28;20021;-68
2022/01/28 12:23:43;;;;;;;2.95;0.80;;;;;;;5.66;33.33;101310.09;5066468;28;20017;-70
2022/01/28 12:26:11;;;;;;;1.55;0.60;;;;;;;5.74;33.57;101325.75;5066704;28;20067;-69
2022/01/28 12:28:37;;;;;;;5.47;0.88;;;;;;;5.73;33.68;101324.00;5066453;28;20036;-69
2022/01/28 12:31:19;;;;;;;3.58;0.90;;;;;;;5.68;33.83;101319.63;5066266;28;20020;-69
2022/01/28 12:33:51;;;;;;;2.92;0.90;;;;;;;5.65;34.12;101321.25;5066207;28;20024;-69
2022/01/28 12:36:29;;;;;;;3.45;0.80;;;;;;;5.63;34.34;101323.78;5066203;28;20041;-69
2022/01/28 12:39:08;;;;;;;1.70;0.90;;;;;;;5.49;34.73;101323.41;5066446;28;20110;-69
2022/01/28 12:41:42;;;;;;;7.20;0.80;;;;;;;5.33;34.95;101306.66;5066354;28;20031;-69
2022/01/28 12:44:09;;;;;;;2.75;0.60;;;;;;;5.31;35.15;101305.72;5066180;28;20449;-68
2022/01/28 12:46:37;;;;;;;4.68;1.02;;;;;;;5.38;35.14;101324.81;5065970;28;20021;-69
2022/01/28 12:49:02;;;;;;;2.47;0.80;;;;;;;5.24;35.16;101321.84;5065936;28;20028;-69
2022/01/28 12:51:28;;;;;;;7.47;0.63;;;;;;;5.28;35.51;101329.69;5047937;28;20013;-70
2022/01/28 12:53:54;;;;;;;6.00;0.73;;;;;;;5.25;35.71;101331.31;5047897;28;20021;-69
2022/01/28 12:56:50;;;;;;;3.65;0.80;;;;;;;5.25;36.17;101339.03;5065768;28;20017;-68
2022/01/28 12:59:16;;;;;;;4.07;1.00;;;;;;;5.17;36.53;101337.13;5049148;28;20036;-68
2022/01/28 13:01:41;;;;;;;5.05;1.08;;;;;;;5.13;37.13;101332.69;5047756;28;20021;-69
2022/01/28 13:04:17;;;;;;;18.13;1.67;;;;;;;5.10;37.64;101327.47;5065435;28;20017;-69